sensor_id;sensor_type;location;lat;lon;timestamp;P1;P2;P0
82823;PMS5003;72575;46.834;-71.234;2023-11-19T00:00:37;4.75;4.65;2.05
82823;PMS5003;72575;46.834;-71.234;2023-11-19T00:03:04;3.82;3.82;2.09
82823;PMS5003;72575;46.834;-71.234;2023-11-19T00:05:27;5.1;3.48;1.24
82823;PMS5003;72575;46.834;-71.234;2023-11-19T00:07:55;5.29;3.29;1.9
82823;PMS5003;72575;46.834;-71.234;2023-11-19T00:10:18;5;3.76;2
82823;PMS5003;72575;46.834;-71.234;2023-11-19T00:12:46;3.2;2.75;2
82823;PMS5003;72575;46.834;-71.234;2023-11-19T00:15:09;7.95;7;4.6
82823;PMS5003;72575;46.834;-71.234;2023-11-19T00:17:34;5.95;5.95;3.6
82823;PMS5003;72575;46.834;-71.234;2023-11-19T00:20:00;6.1;6.1;3.19
82823;PMS5003;72575;46.834;-71.234;2023-11-19T00:22:26;2.95;2.4;1.55
82823;PMS5003;72575;46.834;-71.234;2023-11-19T00:24:52;5.52;5.52;3.19
82823;PMS5003;72575;46.834;-71.234;2023-11-19T00:27:18;5.9;5.1;2.9
82823;PMS5003;72575;46.834;-71.234;2023-11-19T00:29:41;5.85;5.55;2.95
82823;PMS5003;72575;46.834;-71.234;2023-11-19T00:32:08;7.45;5.95;3
82823;PMS5003;72575;46.834;-71.234;2023-11-19T00:34:34;5.7;5.7;2.25
82823;PMS5003;72575;46.834;-71.234;2023-11-19T00:37:01;5;3.14;2
82823;PMS5003;72575;46.834;-71.234;2023-11-19T00:39:26;3.48;2.24;1.24
82823;PMS5003;72575;46.834;-71.234;2023-11-19T00:41:50;2.62;2.62;1.24
82823;PMS5003;72575;46.834;-71.234;2023-11-19T00:44:17;3.8;2.9;2.1
82823;PMS5003;72575;46.834;-71.234;2023-11-19T00:46:41;3.19;3.19;2
82823;PMS5003;72575;46.834;-71.234;2023-11-19T00:49:07;1.1;1.1;0.24
82823;PMS5003;72575;46.834;-71.234;2023-11-19T00:51:33;4.55;3.2;1.55
82823;PMS5003;72575;46.834;-71.234;2023-11-19T00:53:57;9.43;9.43;5.14
82823;PMS5003;72575;46.834;-71.234;2023-11-19T00:56:23;17.95;16.68;7.79
82823;PMS5003;72575;46.834;-71.234;2023-11-19T00:58:47;5.8;5.4;2.7
82823;PMS5003;72575;46.834;-71.234;2023-11-19T01:01:13;5.35;4.4;2.85
82823;PMS5003;72575;46.834;-71.234;2023-11-19T01:03:37;5.6;4.5;2
82823;PMS5003;72575;46.834;-71.234;2023-11-19T01:06:04;6.7;4.1;2.95
82823;PMS5003;72575;46.834;-71.234;2023-11-19T01:08:30;5.81;5.38;2.52
82823;PMS5003;72575;46.834;-71.234;2023-11-19T01:10:56;1.43;1.43;1.43
82823;PMS5003;72575;46.834;-71.234;2023-11-19T01:13:19;2.9;2.38;1.38
82823;PMS5003;72575;46.834;-71.234;2023-11-19T01:15:46;1.52;1.52;1
82823;PMS5003;72575;46.834;-71.234;2023-11-19T01:18:10;3.2;3.2;2
82823;PMS5003;72575;46.834;-71.234;2023-11-19T01:20:36;2.81;2.52;1.81
82823;PMS5003;72575;46.834;-71.234;2023-11-19T01:23:02;3.1;2;1
82823;PMS5003;72575;46.834;-71.234;2023-11-19T01:25:27;3.62;2.24;1.24
82823;PMS5003;72575;46.834;-71.234;2023-11-19T01:27:54;4.05;3.86;2
82823;PMS5003;72575;46.834;-71.234;2023-11-19T01:30:21;2.38;1.81;1.1
82823;PMS5003;72575;46.834;-71.234;2023-11-19T01:32:44;2.7;2.7;1.85
82823;PMS5003;72575;46.834;-71.234;2023-11-19T01:35:09;5.14;2.52;1.38
82823;PMS5003;72575;46.834;-71.234;2023-11-19T01:37:35;2.95;2.95;1.6
82823;PMS5003;72575;46.834;-71.234;2023-11-19T01:40:01;3.3;2.25;1.55
82823;PMS5003;72575;46.834;-71.234;2023-11-19T01:42:26;3.95;3.5;2.45
82823;PMS5003;72575;46.834;-71.234;2023-11-19T01:44:56;2.23;2.23;1.23
82823;PMS5003;72575;46.834;-71.234;2023-11-19T01:47:17;1;1;0.81
82823;PMS5003;72575;46.834;-71.234;2023-11-19T01:49:44;5.42;5.42;1.53
82823;PMS5003;72575;46.834;-71.234;2023-11-19T01:52:07;1.33;1.33;0.9
82823;PMS5003;72575;46.834;-71.234;2023-11-19T01:54:35;1.52;1.52;1
82823;PMS5003;72575;46.834;-71.234;2023-11-19T01:56:59;1.62;1.48;1.24
82823;PMS5003;72575;46.834;-71.234;2023-11-19T01:59:23;2.14;2;1.1
82823;PMS5003;72575;46.834;-71.234;2023-11-19T02:01:50;2.14;2.09;1
82823;PMS5003;72575;46.834;-71.234;2023-11-19T02:04:15;4.24;3.29;1.67
82823;PMS5003;72575;46.834;-71.234;2023-11-19T02:06:41;3.24;3.24;2.24
82823;PMS5003;72575;46.834;-71.234;2023-11-19T02:09:05;6.05;5.85;2.55
82823;PMS5003;72575;46.834;-71.234;2023-11-19T02:11:32;5.65;5.65;2.35
82823;PMS5003;72575;46.834;-71.234;2023-11-19T02:13:57;4.1;3.52;1.33
82823;PMS5003;72575;46.834;-71.234;2023-11-19T02:16:20;18.79;17.95;9.26
82823;PMS5003;72575;46.834;-71.234;2023-11-19T02:18:48;9.9;9;5.33
82823;PMS5003;72575;46.834;-71.234;2023-11-19T02:21:12;42.72;35.94;15.44
82823;PMS5003;72575;46.834;-71.234;2023-11-19T02:23:38;14.42;13.11;8.11
82823;PMS5003;72575;46.834;-71.234;2023-11-19T02:26:09;11.05;10.9;5.25
82823;PMS5003;72575;46.834;-71.234;2023-11-19T02:28:29;10.65;10.1;6.1
82823;PMS5003;72575;46.834;-71.234;2023-11-19T02:30:53;7.65;6.15;3.1
82823;PMS5003;72575;46.834;-71.234;2023-11-19T02:33:18;7.65;7.65;5.15
82823;PMS5003;72575;46.834;-71.234;2023-11-19T02:35:44;9.05;8.38;5.52
82823;PMS5003;72575;46.834;-71.234;2023-11-19T02:38:10;6.4;5.65;3.25
82823;PMS5003;72575;46.834;-71.234;2023-11-19T02:40:35;5.86;5.86;3.29
82823;PMS5003;72575;46.834;-71.234;2023-11-19T02:43:01;7.3;6.5;4.25
82823;PMS5003;72575;46.834;-71.234;2023-11-19T02:45:26;9.11;9.11;4.68
82823;PMS5003;72575;46.834;-71.234;2023-11-19T02:47:52;6.32;6.32;4.16
82823;PMS5003;72575;46.834;-71.234;2023-11-19T02:50:29;7.71;7;3
82823;PMS5003;72575;46.834;-71.234;2023-11-19T02:52:55;9.7;9.45;5.2
82823;PMS5003;72575;46.834;-71.234;2023-11-19T02:55:20;5.95;5.5;3.2
82823;PMS5003;72575;46.834;-71.234;2023-11-19T02:57:45;5.05;4.26;2.37
82823;PMS5003;72575;46.834;-71.234;2023-11-19T03:00:11;4.2;3.6;2.1
82823;PMS5003;72575;46.834;-71.234;2023-11-19T03:02:36;5.1;5;2
82823;PMS5003;72575;46.834;-71.234;2023-11-19T03:05:00;7.55;7.55;4.35
82823;PMS5003;72575;46.834;-71.234;2023-11-19T03:07:26;2.86;2.86;1.86
82823;PMS5003;72575;46.834;-71.234;2023-11-19T03:09:52;7.2;6.65;4.8
82823;PMS5003;72575;46.834;-71.234;2023-11-19T03:12:16;6.65;6.5;5.15
82823;PMS5003;72575;46.834;-71.234;2023-11-19T03:14:42;9.68;9.68;7.84
82823;PMS5003;72575;46.834;-71.234;2023-11-19T03:17:09;6.8;6.8;2.8
82823;PMS5003;72575;46.834;-71.234;2023-11-19T03:19:33;11.1;9;3.2
82823;PMS5003;72575;46.834;-71.234;2023-11-19T03:21:57;11.5;9.9;6.5
82823;PMS5003;72575;46.834;-71.234;2023-11-19T03:24:24;9;9;5.38
82823;PMS5003;72575;46.834;-71.234;2023-11-19T03:26:51;18.85;15.9;6.9
82823;PMS5003;72575;46.834;-71.234;2023-11-19T03:29:15;12.25;10.9;6.65
82823;PMS5003;72575;46.834;-71.234;2023-11-19T03:31:41;14.95;14.53;9.05
82823;PMS5003;72575;46.834;-71.234;2023-11-19T03:34:05;17;15.47;7
82823;PMS5003;72575;46.834;-71.234;2023-11-19T03:36:32;14.47;13.11;7.37
82823;PMS5003;72575;46.834;-71.234;2023-11-19T03:38:57;6.25;5.85;4.6
82823;PMS5003;72575;46.834;-71.234;2023-11-19T03:41:22;7.65;7.65;4.2
82823;PMS5003;72575;46.834;-71.234;2023-11-19T03:43:46;6.74;5.47;2.63
82823;PMS5003;72575;46.834;-71.234;2023-11-19T03:46:17;11.28;9.67;5.06
82823;PMS5003;72575;46.834;-71.234;2023-11-19T03:48:37;11;11;7.47
82823;PMS5003;72575;46.834;-71.234;2023-11-19T03:51:04;12.94;11.94;7.72
82823;PMS5003;72575;46.834;-71.234;2023-11-19T03:53:30;18.65;17.75;9.25
82823;PMS5003;72575;46.834;-71.234;2023-11-19T03:55:53;17.68;13.11;7.79
82823;PMS5003;72575;46.834;-71.234;2023-11-19T03:58:20;10.1;9.15;5.75
82823;PMS5003;72575;46.834;-71.234;2023-11-19T04:00:44;13.89;12.95;6.05
82823;PMS5003;72575;46.834;-71.234;2023-11-19T04:03:09;13.05;11.58;6.95
82823;PMS5003;72575;46.834;-71.234;2023-11-19T04:05:36;11;9.72;6.67
82823;PMS5003;72575;46.834;-71.234;2023-11-19T04:08:02;11.94;9.94;5.78
82823;PMS5003;72575;46.834;-71.234;2023-11-19T04:10:26;10.47;9.63;6.95
82823;PMS5003;72575;46.834;-71.234;2023-11-19T04:12:50;12.16;9.63;6.21
82823;PMS5003;72575;46.834;-71.234;2023-11-19T04:15:17;14.47;12.63;8.42
82823;PMS5003;72575;46.834;-71.234;2023-11-19T04:17:44;14.67;11;7.56
82823;PMS5003;72575;46.834;-71.234;2023-11-19T04:20:10;10;9.47;7.74
82823;PMS5003;72575;46.834;-71.234;2023-11-19T04:22:32;15.58;13.16;8
82823;PMS5003;72575;46.834;-71.234;2023-11-19T04:24:58;11.21;9.68;6.37
82823;PMS5003;72575;46.834;-71.234;2023-11-19T04:27:22;13.61;12.94;6
82823;PMS5003;72575;46.834;-71.234;2023-11-19T04:29:50;10.89;10.61;7.11
82823;PMS5003;72575;46.834;-71.234;2023-11-19T04:32:15;13.37;12.37;8.53
82823;PMS5003;72575;46.834;-71.234;2023-11-19T04:34:41;13.33;11.33;7.33
82823;PMS5003;72575;46.834;-71.234;2023-11-19T04:37:06;14.16;13.37;7.74
82823;PMS5003;72575;46.834;-71.234;2023-11-19T04:39:32;13.11;12.56;9
82823;PMS5003;72575;46.834;-71.234;2023-11-19T04:41:57;11.94;10.56;7.22
82823;PMS5003;72575;46.834;-71.234;2023-11-19T04:44:22;9.89;9;5.78
82823;PMS5003;72575;46.834;-71.234;2023-11-19T04:46:46;17.8;15.5;7.7
82823;PMS5003;72575;46.834;-71.234;2023-11-19T04:49:13;16.95;15.58;8.32
82823;PMS5003;72575;46.834;-71.234;2023-11-19T04:51:40;12;10.11;7.67
82823;PMS5003;72575;46.834;-71.234;2023-11-19T04:54:03;20.89;17.89;9.53
82823;PMS5003;72575;46.834;-71.234;2023-11-19T04:56:29;16.61;13.33;9.11
82823;PMS5003;72575;46.834;-71.234;2023-11-19T04:58:54;13.32;11.74;7.47
82823;PMS5003;72575;46.834;-71.234;2023-11-19T05:01:20;12.61;12.22;7.06
82823;PMS5003;72575;46.834;-71.234;2023-11-19T05:03:45;14.39;11.78;8.5
82823;PMS5003;72575;46.834;-71.234;2023-11-19T05:06:11;17.95;16.53;8.47
82823;PMS5003;72575;46.834;-71.234;2023-11-19T05:08:37;21.47;20.11;10.05
82823;PMS5003;72575;46.834;-71.234;2023-11-19T05:11:02;13.28;12.72;6.06
82823;PMS5003;72575;46.834;-71.234;2023-11-19T05:13:26;11.61;10.94;7.89
82823;PMS5003;72575;46.834;-71.234;2023-11-19T05:15:52;13.44;10.39;5.67
82823;PMS5003;72575;46.834;-71.234;2023-11-19T05:18:18;10.39;10.39;6
82823;PMS5003;72575;46.834;-71.234;2023-11-19T05:20:44;13.06;10.67;6.06
82823;PMS5003;72575;46.834;-71.234;2023-11-19T05:23:10;10.26;8.89;4.42
82823;PMS5003;72575;46.834;-71.234;2023-11-19T05:25:34;9.28;8.61;5
82823;PMS5003;72575;46.834;-71.234;2023-11-19T05:28:00;11.17;9.33;4.39
82823;PMS5003;72575;46.834;-71.234;2023-11-19T05:30:24;8.22;7.06;4.5
82823;PMS5003;72575;46.834;-71.234;2023-11-19T05:32:50;7.39;6.39;4
82823;PMS5003;72575;46.834;-71.234;2023-11-19T05:35:16;12.33;10.89;5
82823;PMS5003;72575;46.834;-71.234;2023-11-19T05:37:42;8.94;8.67;5.33
82823;PMS5003;72575;46.834;-71.234;2023-11-19T05:40:06;10.63;9.68;4.84
82823;PMS5003;72575;46.834;-71.234;2023-11-19T05:42:33;11.56;9.56;5
82823;PMS5003;72575;46.834;-71.234;2023-11-19T05:44:57;8.83;7.89;4.78
82823;PMS5003;72575;46.834;-71.234;2023-11-19T05:47:24;9.67;8.22;4.56
82823;PMS5003;72575;46.834;-71.234;2023-11-19T05:49:49;8.61;7.17;3.67
82823;PMS5003;72575;46.834;-71.234;2023-11-19T05:52:15;8.5;8.5;5.39
82823;PMS5003;72575;46.834;-71.234;2023-11-19T05:54:37;13.33;8.22;4.39
82823;PMS5003;72575;46.834;-71.234;2023-11-19T05:57:06;9.58;8.89;5.47
82823;PMS5003;72575;46.834;-71.234;2023-11-19T05:59:29;9.83;8.56;4.5
82823;PMS5003;72575;46.834;-71.234;2023-11-19T06:01:54;8.17;8.17;4.94
82823;PMS5003;72575;46.834;-71.234;2023-11-19T06:04:20;8.44;7.39;4.83
82823;PMS5003;72575;46.834;-71.234;2023-11-19T06:06:45;7.94;7;4
82823;PMS5003;72575;46.834;-71.234;2023-11-19T06:09:10;10.39;10.28;6
82823;PMS5003;72575;46.834;-71.234;2023-11-19T06:11:37;8.28;7.11;4.94
82823;PMS5003;72575;46.834;-71.234;2023-11-19T06:14:02;8.26;8.05;5
82823;PMS5003;72575;46.834;-71.234;2023-11-19T06:16:29;9.33;9.33;4.83
82823;PMS5003;72575;46.834;-71.234;2023-11-19T06:18:52;12.39;11.67;6.78
82823;PMS5003;72575;46.834;-71.234;2023-11-19T06:21:18;13.72;12.78;5.28
82823;PMS5003;72575;46.834;-71.234;2023-11-19T06:23:47;20.89;18.42;9.16
82823;PMS5003;72575;46.834;-71.234;2023-11-19T06:26:11;34;30.74;16.21
82823;PMS5003;72575;46.834;-71.234;2023-11-19T06:28:37;28.56;25.72;11.39
82823;PMS5003;72575;46.834;-71.234;2023-11-19T06:31:03;7.05;7.05;4
82823;PMS5003;72575;46.834;-71.234;2023-11-19T06:33:29;8.78;8.67;6.33
82823;PMS5003;72575;46.834;-71.234;2023-11-19T06:35:53;46.28;42.22;20.72
82823;PMS5003;72575;46.834;-71.234;2023-11-19T06:38:20;31.1;28.85;15.1
82823;PMS5003;72575;46.834;-71.234;2023-11-19T06:40:45;12.83;10.89;6
82823;PMS5003;72575;46.834;-71.234;2023-11-19T06:43:08;16.94;12.33;5.94
82823;PMS5003;72575;46.834;-71.234;2023-11-19T06:45:33;7;7;4.72
82823;PMS5003;72575;46.834;-71.234;2023-11-19T06:48:02;9.05;9.05;5
82823;PMS5003;72575;46.834;-71.234;2023-11-19T06:50:27;17.21;15.63;7.05
82823;PMS5003;72575;46.834;-71.234;2023-11-19T06:52:50;7.89;7.89;3.33
82823;PMS5003;72575;46.834;-71.234;2023-11-19T06:55:16;14.39;12.78;7.56
82823;PMS5003;72575;46.834;-71.234;2023-11-19T06:57:41;7.56;7;4.06
82823;PMS5003;72575;46.834;-71.234;2023-11-19T07:00:06;8.44;8.44;5.39
82823;PMS5003;72575;46.834;-71.234;2023-11-19T07:02:32;6.76;6.76;4
82823;PMS5003;72575;46.834;-71.234;2023-11-19T07:04:59;8.63;6.63;4.05
82823;PMS5003;72575;46.834;-71.234;2023-11-19T07:07:28;9.33;8.39;4.61
82823;PMS5003;72575;46.834;-71.234;2023-11-19T07:09:51;9.32;8.37;5.47
82823;PMS5003;72575;46.834;-71.234;2023-11-19T07:12:15;11.17;9.5;5
82823;PMS5003;72575;46.834;-71.234;2023-11-19T07:14:41;8.47;7.58;4.95
82823;PMS5003;72575;46.834;-71.234;2023-11-19T07:17:08;8.39;8.39;4.94
82823;PMS5003;72575;46.834;-71.234;2023-11-19T07:19:33;9.53;9.26;5.68
82823;PMS5003;72575;46.834;-71.234;2023-11-19T07:22:00;11.3;10.7;4.6
82823;PMS5003;72575;46.834;-71.234;2023-11-19T07:24:25;7.47;6.84;4.37
82823;PMS5003;72575;46.834;-71.234;2023-11-19T07:26:49;9.74;7.79;5.95
82823;PMS5003;72575;46.834;-71.234;2023-11-19T07:29:16;8.44;8.22;5
82823;PMS5003;72575;46.834;-71.234;2023-11-19T07:31:39;5.72;5;3.33
82823;PMS5003;72575;46.834;-71.234;2023-11-19T07:34:05;5.83;5.61;4.89
82823;PMS5003;72575;46.834;-71.234;2023-11-19T07:36:32;7;6.79;4.32
82823;PMS5003;72575;46.834;-71.234;2023-11-19T07:38:57;8.58;8.26;5.63
82823;PMS5003;72575;46.834;-71.234;2023-11-19T07:41:24;8.39;8.39;4.39
82823;PMS5003;72575;46.834;-71.234;2023-11-19T07:43:47;7.83;7.83;5
82823;PMS5003;72575;46.834;-71.234;2023-11-19T07:46:14;6.78;6.39;3.78
82823;PMS5003;72575;46.834;-71.234;2023-11-19T07:48:39;9.94;8.89;5
82823;PMS5003;72575;46.834;-71.234;2023-11-19T07:51:05;6.17;6.11;3.89
82823;PMS5003;72575;46.834;-71.234;2023-11-19T07:53:30;4.89;4.33;1.67
82823;PMS5003;72575;46.834;-71.234;2023-11-19T07:55:56;6.05;4.95;1.68
82823;PMS5003;72575;46.834;-71.234;2023-11-19T07:58:22;5.05;4.95;2.84
82823;PMS5003;72575;46.834;-71.234;2023-11-19T08:00:45;7.83;7.17;3.89
82823;PMS5003;72575;46.834;-71.234;2023-11-19T08:03:11;14.9;14.45;5
82823;PMS5003;72575;46.834;-71.234;2023-11-19T08:05:35;6.17;5.11;3.22
82823;PMS5003;72575;46.834;-71.234;2023-11-19T08:08:01;10.39;10.22;5
82823;PMS5003;72575;46.834;-71.234;2023-11-19T08:10:27;7.28;7.28;4
82823;PMS5003;72575;46.834;-71.234;2023-11-19T08:12:53;7.37;6.74;4
82823;PMS5003;72575;46.834;-71.234;2023-11-19T08:15:17;8.33;7.89;4.89
82823;PMS5003;72575;46.834;-71.234;2023-11-19T08:17:43;11.21;8.84;4.63
82823;PMS5003;72575;46.834;-71.234;2023-11-19T08:20:10;6.74;6.74;2.21
82823;PMS5003;72575;46.834;-71.234;2023-11-19T08:22:34;8.32;8.32;4.37
82823;PMS5003;72575;46.834;-71.234;2023-11-19T08:24:58;8.56;8.56;4
82823;PMS5003;72575;46.834;-71.234;2023-11-19T08:27:25;10.16;8.32;3.89
82823;PMS5003;72575;46.834;-71.234;2023-11-19T08:29:52;6.37;5.26;3.68
82823;PMS5003;72575;46.834;-71.234;2023-11-19T08:32:15;11.52;9.67;5.86
82823;PMS5003;72575;46.834;-71.234;2023-11-19T08:34:41;9.16;5.63;2.84
82823;PMS5003;72575;46.834;-71.234;2023-11-19T08:37:07;8.26;8;4.37
82823;PMS5003;72575;46.834;-71.234;2023-11-19T08:39:31;6.84;6.84;4.21
82823;PMS5003;72575;46.834;-71.234;2023-11-19T08:41:57;10.21;9.42;4.89
82823;PMS5003;72575;46.834;-71.234;2023-11-19T08:44:22;12.63;11.42;4.37
82823;PMS5003;72575;46.834;-71.234;2023-11-19T08:46:49;11.3;9.35;4.3
82823;PMS5003;72575;46.834;-71.234;2023-11-19T08:49:12;11.9;10.1;3.15
82823;PMS5003;72575;46.834;-71.234;2023-11-19T08:51:38;7.11;5.16;1.63
82823;PMS5003;72575;46.834;-71.234;2023-11-19T08:54:04;10.63;9.74;4.26
82823;PMS5003;72575;46.834;-71.234;2023-11-19T08:56:30;6.89;6.89;4.63
82823;PMS5003;72575;46.834;-71.234;2023-11-19T08:58:55;8.16;7.32;4.21
82823;PMS5003;72575;46.834;-71.234;2023-11-19T09:13:14;9.95;6.95;4.26
82823;PMS5003;72575;46.834;-71.234;2023-11-19T09:13:29;8.15;7.4;4
82823;PMS5003;72575;46.834;-71.234;2023-11-19T09:13:40;7.29;6.14;3.24
82823;PMS5003;72575;46.834;-71.234;2023-11-19T09:13:53;12.9;11.8;4
82823;PMS5003;72575;46.834;-71.234;2023-11-19T09:14:02;7.65;5.85;2.55
82823;PMS5003;72575;46.834;-71.234;2023-11-19T09:15:08;11.6;11.25;6.45
82823;PMS5003;72575;46.834;-71.234;2023-11-19T09:17:32;7.4;6.1;3
82823;PMS5003;72575;46.834;-71.234;2023-11-19T09:19:57;8.1;5.95;2.35
82823;PMS5003;72575;46.834;-71.234;2023-11-19T09:22:22;15.16;12.21;4.68
82823;PMS5003;72575;46.834;-71.234;2023-11-19T09:24:47;13.1;11.43;4.1
82823;PMS5003;72575;46.834;-71.234;2023-11-19T09:27:12;10.16;8.84;3.53
82823;PMS5003;72575;46.834;-71.234;2023-11-19T09:29:38;10.5;9.5;4.56
82823;PMS5003;72575;46.834;-71.234;2023-11-19T09:32:05;12.22;7.94;4.06
82823;PMS5003;72575;46.834;-71.234;2023-11-19T09:34:28;9.74;8.16;4.47
82823;PMS5003;72575;46.834;-71.234;2023-11-19T09:36:56;10.9;8.29;4.43
82823;PMS5003;72575;46.834;-71.234;2023-11-19T09:39:20;14.9;13.5;5.7
82823;PMS5003;72575;46.834;-71.234;2023-11-19T09:41:47;9.25;8.1;4.5
82823;PMS5003;72575;46.834;-71.234;2023-11-19T09:44:10;11.1;7.45;3.35
82823;PMS5003;72575;46.834;-71.234;2023-11-19T09:46:37;8.37;7.84;4
82823;PMS5003;72575;46.834;-71.234;2023-11-19T09:49:02;11.32;8.68;5.26
82823;PMS5003;72575;46.834;-71.234;2023-11-19T09:51:39;11.8;11.3;6.45
82823;PMS5003;72575;46.834;-71.234;2023-11-19T09:54:06;15.75;13.4;6.95
82823;PMS5003;72575;46.834;-71.234;2023-11-19T09:56:31;11.9;11.2;5.25
82823;PMS5003;72575;46.834;-71.234;2023-11-19T09:58:55;12.6;12;5.7
82823;PMS5003;72575;46.834;-71.234;2023-11-19T10:01:23;10;8.05;4.45
82823;PMS5003;72575;46.834;-71.234;2023-11-19T10:03:47;14.62;12.67;4.43
82823;PMS5003;72575;46.834;-71.234;2023-11-19T10:06:13;14.42;10.58;3.79
82823;PMS5003;72575;46.834;-71.234;2023-11-19T10:08:38;16.77;13.73;7.45
82823;PMS5003;72575;46.834;-71.234;2023-11-19T10:11:05;14.16;12.11;4.79
82823;PMS5003;72575;46.834;-71.234;2023-11-19T10:13:30;17.65;16.3;6.9
82823;PMS5003;72575;46.834;-71.234;2023-11-19T10:15:54;7.44;6.67;4.56
82823;PMS5003;72575;46.834;-71.234;2023-11-19T10:18:23;11.15;9.95;5.4
82823;PMS5003;72575;46.834;-71.234;2023-11-19T10:20:46;15.47;12.11;6
82823;PMS5003;72575;46.834;-71.234;2023-11-19T10:23:11;10.3;10.3;4.55
82823;PMS5003;72575;46.834;-71.234;2023-11-19T10:25:38;13.6;11.45;6.1
82823;PMS5003;72575;46.834;-71.234;2023-11-19T10:28:03;14.47;11;6.32
82823;PMS5003;72575;46.834;-71.234;2023-11-19T10:30:27;10.35;10.05;6
82823;PMS5003;72575;46.834;-71.234;2023-11-19T10:33:09;21.89;18.28;6.22
82823;PMS5003;72575;46.834;-71.234;2023-11-19T10:35:19;11.89;11.26;6.37
82823;PMS5003;72575;46.834;-71.234;2023-11-19T10:37:43;11.2;10.1;5.4
82823;PMS5003;72575;46.834;-71.234;2023-11-19T10:40:10;16.45;13.5;7.5
82823;PMS5003;72575;46.834;-71.234;2023-11-19T10:42:36;13.43;11.71;6.29
82823;PMS5003;72575;46.834;-71.234;2023-11-19T10:44:59;16.4;13.3;6.7
82823;PMS5003;72575;46.834;-71.234;2023-11-19T10:47:25;13.6;11.95;5.95
82823;PMS5003;72575;46.834;-71.234;2023-11-19T10:49:51;13.75;12.95;6.25
82823;PMS5003;72575;46.834;-71.234;2023-11-19T10:52:17;13.05;12.95;5.95
82823;PMS5003;72575;46.834;-71.234;2023-11-19T10:54:42;12.71;12.24;6
82823;PMS5003;72575;46.834;-71.234;2023-11-19T10:57:08;17.63;17.37;6.21
82823;PMS5003;72575;46.834;-71.234;2023-11-19T10:59:33;18.5;15.35;7.05
82823;PMS5003;72575;46.834;-71.234;2023-11-19T11:01:58;13.84;13.37;5.26
82823;PMS5003;72575;46.834;-71.234;2023-11-19T11:04:24;16.84;12.68;6.79
82823;PMS5003;72575;46.834;-71.234;2023-11-19T11:06:50;11.1;10.8;8.1
82823;PMS5003;72575;46.834;-71.234;2023-11-19T11:09:13;15;15;6.26
82823;PMS5003;72575;46.834;-71.234;2023-11-19T11:11:38;10.9;9.8;5.6
82823;PMS5003;72575;46.834;-71.234;2023-11-19T11:14:05;22.21;19.95;8.68
82823;PMS5003;72575;46.834;-71.234;2023-11-19T11:16:30;16.52;14.86;9
82823;PMS5003;72575;46.834;-71.234;2023-11-19T11:18:57;12.6;11.35;7.35
82823;PMS5003;72575;46.834;-71.234;2023-11-19T11:21:21;16.15;13;6.7
82823;PMS5003;72575;46.834;-71.234;2023-11-19T11:23:51;18;13.95;7.21
82823;PMS5003;72575;46.834;-71.234;2023-11-19T11:26:18;19.7;17.5;8.8
82823;PMS5003;72575;46.834;-71.234;2023-11-19T11:28:39;20.8;19.55;7.65
82823;PMS5003;72575;46.834;-71.234;2023-11-19T11:31:08;14.5;13.35;7
82823;PMS5003;72575;46.834;-71.234;2023-11-19T11:33:31;15.19;14.33;7.33
82823;PMS5003;72575;46.834;-71.234;2023-11-19T11:35:57;15.35;13.35;6.4
82823;PMS5003;72575;46.834;-71.234;2023-11-19T11:38:18;14.05;11.75;7.05
82823;PMS5003;72575;46.834;-71.234;2023-11-19T11:40:44;15.05;13.7;7.6
82823;PMS5003;72575;46.834;-71.234;2023-11-19T11:43:39;16.89;16.05;6.84
82823;PMS5003;72575;46.834;-71.234;2023-11-19T11:45:36;13;11.67;6
82823;PMS5003;72575;46.834;-71.234;2023-11-19T11:48:16;15.1;13.75;8.65
82823;PMS5003;72575;46.834;-71.234;2023-11-19T11:50:26;15.95;15.75;7.55
82823;PMS5003;72575;46.834;-71.234;2023-11-19T11:53:22;11.38;10.9;6.38
82823;PMS5003;72575;46.834;-71.234;2023-11-19T11:55:15;16;14.7;7.15
82823;PMS5003;72575;46.834;-71.234;2023-11-19T11:57:40;15.15;13.7;7.25
82823;PMS5003;72575;46.834;-71.234;2023-11-19T12:00:08;14.53;14.05;9.11
82823;PMS5003;72575;46.834;-71.234;2023-11-19T12:02:33;16.95;14.65;9.4
82823;PMS5003;72575;46.834;-71.234;2023-11-19T12:04:56;17.35;16.8;8.35
82823;PMS5003;72575;46.834;-71.234;2023-11-19T12:07:27;16.24;15.29;8.86
82823;PMS5003;72575;46.834;-71.234;2023-11-19T12:09:52;21.9;18.2;9.85
82823;PMS5003;72575;46.834;-71.234;2023-11-19T12:12:18;17.75;13.75;7.5
82823;PMS5003;72575;46.834;-71.234;2023-11-19T12:15:13;13.55;11;6.25
82823;PMS5003;72575;46.834;-71.234;2023-11-19T12:17:10;18.4;17.75;10.1
82823;PMS5003;72575;46.834;-71.234;2023-11-19T12:19:33;19.86;17.76;9.24
82823;PMS5003;72575;46.834;-71.234;2023-11-19T12:21:57;18.75;17.25;7.75
82823;PMS5003;72575;46.834;-71.234;2023-11-19T12:24:23;18.7;15.8;6.8
82823;PMS5003;72575;46.834;-71.234;2023-11-19T12:26:50;22;20.15;8.55
82823;PMS5003;72575;46.834;-71.234;2023-11-19T12:29:13;15.15;13.25;6.45
82823;PMS5003;72575;46.834;-71.234;2023-11-19T12:31:40;26.28;24.28;10.33
82823;PMS5003;72575;46.834;-71.234;2023-11-19T12:34:07;29.55;23.15;13.15
82823;PMS5003;72575;46.834;-71.234;2023-11-19T12:36:30;22.6;22.35;12.9
82823;PMS5003;72575;46.834;-71.234;2023-11-19T12:38:56;20.35;19.7;8.7
82823;PMS5003;72575;46.834;-71.234;2023-11-19T12:41:23;35.7;28;12.7
82823;PMS5003;72575;46.834;-71.234;2023-11-19T12:43:47;30.05;29.16;13.74
82823;PMS5003;72575;46.834;-71.234;2023-11-19T12:46:18;24.75;22.25;10.7
82823;PMS5003;72575;46.834;-71.234;2023-11-19T12:48:38;23.5;21.5;10.95
82823;PMS5003;72575;46.834;-71.234;2023-11-19T12:51:02;33.11;28.68;12.95
82823;PMS5003;72575;46.834;-71.234;2023-11-19T12:53:27;28.68;23.58;10.05
82823;PMS5003;72575;46.834;-71.234;2023-11-19T12:55:55;25.9;24;12.85
82823;PMS5003;72575;46.834;-71.234;2023-11-19T12:58:28;33.89;27.21;11.63
82823;PMS5003;72575;46.834;-71.234;2023-11-19T13:00:44;29.4;28.15;11.55
82823;PMS5003;72575;46.834;-71.234;2023-11-19T13:03:10;30;25;12.2
82823;PMS5003;72575;46.834;-71.234;2023-11-19T13:05:36;27.7;25;14.1
82823;PMS5003;72575;46.834;-71.234;2023-11-19T13:08:00;25.8;23.35;11.05
82823;PMS5003;72575;46.834;-71.234;2023-11-19T13:10:27;33.05;29.37;12
82823;PMS5003;72575;46.834;-71.234;2023-11-19T13:12:59;32.32;31.68;12.42
82823;PMS5003;72575;46.834;-71.234;2023-11-19T13:15:26;30.6;27.9;13.55
82823;PMS5003;72575;46.834;-71.234;2023-11-19T13:17:44;28.75;25.15;14.1
82823;PMS5003;72575;46.834;-71.234;2023-11-19T13:20:09;29.89;26.79;13.05
82823;PMS5003;72575;46.834;-71.234;2023-11-19T13:22:32;25.05;22.05;11.4
82823;PMS5003;72575;46.834;-71.234;2023-11-19T13:24:59;32.67;27.39;14
82823;PMS5003;72575;46.834;-71.234;2023-11-19T13:27:23;28.47;24.21;14.21
82823;PMS5003;72575;46.834;-71.234;2023-11-19T13:29:48;29.95;28.1;14.45
82823;PMS5003;72575;46.834;-71.234;2023-11-19T13:32:16;28.33;25.81;12.43
82823;PMS5003;72575;46.834;-71.234;2023-11-19T13:34:39;31;30.21;15.26
82823;PMS5003;72575;46.834;-71.234;2023-11-19T13:37:05;31.78;28.22;12.72
82823;PMS5003;72575;46.834;-71.234;2023-11-19T13:39:31;25.35;24.15;12.7
82823;PMS5003;72575;46.834;-71.234;2023-11-19T13:41:57;31.65;25.3;11
82823;PMS5003;72575;46.834;-71.234;2023-11-19T13:44:20;28.79;27.74;13.05
82823;PMS5003;72575;46.834;-71.234;2023-11-19T13:46:48;29.89;28.11;12.89
82823;PMS5003;72575;46.834;-71.234;2023-11-19T13:49:13;36.48;30.38;13
82823;PMS5003;72575;46.834;-71.234;2023-11-19T13:51:38;26.35;25.05;11.5